Carp Lake, Michigan
Current Conditions -  °F | °C
As of 2:54 AM on Saturday 25 Oct 2014 (Local Time) from KPLN Reporting Station
Overcast Overcast  
Wind Chill: 52°   Ceiling: 3100
Heat Index: 52°   Visibility: 10mi
Dew Point: 47°   Wind: 7mph
Humidity: 83%   Direction: NA
Pressure: 29.76"   Gusts: NA
Location:  45.7°N, 84.75°W
Report Text: KPLN 250654Z AUTO VRB06KT 10SM OVC031 11/08 A2976 RMK AO2 SLP082 T01110083
Loading
Personal Weather Stations






























Interactive Weather Map
Tropical Storm Tracking
New forecast layout! Learn more

10-Day Weather Forecast

Advertisements
Track Severe Weather on mobile